sensor_id;sensor_type;location;lat;lon;timestamp;P1;durP1;ratioP1;P2;durP2;ratioP2
12681;SDS011;6405;59.208;18.216;2023-07-28T00:01:26;3.40;;;2.33;;
12681;SDS011;6405;59.208;18.216;2023-07-28T00:03:52;2.87;;;2.20;;
12681;SDS011;6405;59.208;18.216;2023-07-28T00:06:18;2.40;;;1.90;;
12681;SDS011;6405;59.208;18.216;2023-07-28T00:08:43;6.97;;;2.50;;
12681;SDS011;6405;59.208;18.216;2023-07-28T00:11:10;4.40;;;2.60;;
12681;SDS011;6405;59.208;18.216;2023-07-28T00:13:39;4.60;;;2.63;;
12681;SDS011;6405;59.208;18.216;2023-07-28T00:16:05;4.00;;;2.70;;
12681;SDS011;6405;59.208;18.216;2023-07-28T00:18:31;2.67;;;2.33;;
12681;SDS011;6405;59.208;18.216;2023-07-28T00:20:57;4.47;;;2.67;;
12681;SDS011;6405;59.208;18.216;2023-07-28T00:23:23;5.53;;;2.60;;
12681;SDS011;6405;59.208;18.216;2023-07-28T00:25:49;3.53;;;2.63;;
12681;SDS011;6405;59.208;18.216;2023-07-28T00:28:16;4.90;;;2.63;;
12681;SDS011;6405;59.208;18.216;2023-07-28T00:30:42;5.60;;;2.83;;
12681;SDS011;6405;59.208;18.216;2023-07-28T00:33:08;3.37;;;2.50;;
12681;SDS011;6405;59.208;18.216;2023-07-28T00:35:34;3.40;;;2.57;;
12681;SDS011;6405;59.208;18.216;2023-07-28T00:38:00;6.40;;;3.03;;
12681;SDS011;6405;59.208;18.216;2023-07-28T00:40:26;5.03;;;2.83;;
12681;SDS011;6405;59.208;18.216;2023-07-28T00:42:51;5.77;;;3.20;;
12681;SDS011;6405;59.208;18.216;2023-07-28T00:45:17;5.00;;;2.73;;
12681;SDS011;6405;59.208;18.216;2023-07-28T00:47:44;4.90;;;2.87;;
12681;SDS011;6405;59.208;18.216;2023-07-28T00:50:10;4.33;;;2.47;;
12681;SDS011;6405;59.208;18.216;2023-07-28T00:52:37;3.73;;;3.10;;
12681;SDS011;6405;59.208;18.216;2023-07-28T00:55:06;4.13;;;3.23;;
12681;SDS011;6405;59.208;18.216;2023-07-28T00:57:33;4.37;;;3.07;;
12681;SDS011;6405;59.208;18.216;2023-07-28T00:59:59;5.10;;;3.00;;
12681;SDS011;6405;59.208;18.216;2023-07-28T01:02:25;4.37;;;2.77;;
12681;SDS011;6405;59.208;18.216;2023-07-28T01:04:51;3.57;;;2.63;;
12681;SDS011;6405;59.208;18.216;2023-07-28T01:07:30;3.97;;;2.70;;
12681;SDS011;6405;59.208;18.216;2023-07-28T01:10:18;4.23;;;2.40;;
12681;SDS011;6405;59.208;18.216;2023-07-28T01:12:53;2.90;;;2.43;;
12681;SDS011;6405;59.208;18.216;2023-07-28T01:15:19;5.90;;;2.80;;
12681;SDS011;6405;59.208;18.216;2023-07-28T01:17:45;5.10;;;2.37;;
12681;SDS011;6405;59.208;18.216;2023-07-28T01:20:11;3.90;;;2.60;;
12681;SDS011;6405;59.208;18.216;2023-07-28T01:27:57;2.80;;;2.13;;
12681;SDS011;6405;59.208;18.216;2023-07-28T01:30:25;5.47;;;2.63;;
12681;SDS011;6405;59.208;18.216;2023-07-28T01:32:55;2.30;;;2.00;;
12681;SDS011;6405;59.208;18.216;2023-07-28T01:35:22;2.97;;;2.40;;
12681;SDS011;6405;59.208;18.216;2023-07-28T01:37:48;3.53;;;2.27;;
12681;SDS011;6405;59.208;18.216;2023-07-28T01:40:19;3.17;;;2.30;;
12681;SDS011;6405;59.208;18.216;2023-07-28T01:42:45;2.93;;;2.30;;
12681;SDS011;6405;59.208;18.216;2023-07-28T01:45:11;3.20;;;2.47;;
12681;SDS011;6405;59.208;18.216;2023-07-28T01:47:37;5.03;;;2.57;;
12681;SDS011;6405;59.208;18.216;2023-07-28T01:50:02;2.80;;;2.47;;
12681;SDS011;6405;59.208;18.216;2023-07-28T01:52:29;3.70;;;2.60;;
12681;SDS011;6405;59.208;18.216;2023-07-28T01:54:54;2.70;;;2.20;;
12681;SDS011;6405;59.208;18.216;2023-07-28T01:57:20;4.73;;;2.40;;
12681;SDS011;6405;59.208;18.216;2023-07-28T01:59:46;3.17;;;2.47;;
12681;SDS011;6405;59.208;18.216;2023-07-28T02:02:12;5.70;;;2.37;;
12681;SDS011;6405;59.208;18.216;2023-07-28T02:04:37;5.00;;;2.40;;
12681;SDS011;6405;59.208;18.216;2023-07-28T02:07:03;3.77;;;2.93;;
12681;SDS011;6405;59.208;18.216;2023-07-28T02:09:29;3.00;;;2.57;;
12681;SDS011;6405;59.208;18.216;2023-07-28T02:11:55;4.07;;;2.93;;
12681;SDS011;6405;59.208;18.216;2023-07-28T02:14:20;4.53;;;2.27;;
12681;SDS011;6405;59.208;18.216;2023-07-28T02:16:46;2.30;;;2.10;;
12681;SDS011;6405;59.208;18.216;2023-07-28T02:19:12;2.67;;;2.30;;
12681;SDS011;6405;59.208;18.216;2023-07-28T02:21:39;2.10;;;1.90;;
12681;SDS011;6405;59.208;18.216;2023-07-28T02:24:04;3.10;;;2.50;;
12681;SDS011;6405;59.208;18.216;2023-07-28T02:26:30;4.97;;;2.80;;
12681;SDS011;6405;59.208;18.216;2023-07-28T02:28:56;4.50;;;2.50;;
12681;SDS011;6405;59.208;18.216;2023-07-28T02:31:21;4.10;;;2.80;;
12681;SDS011;6405;59.208;18.216;2023-07-28T02:33:47;2.33;;;2.10;;
12681;SDS011;6405;59.208;18.216;2023-07-28T02:36:13;4.03;;;2.30;;
12681;SDS011;6405;59.208;18.216;2023-07-28T02:38:39;3.70;;;2.63;;
12681;SDS011;6405;59.208;18.216;2023-07-28T02:41:04;4.20;;;2.20;;
12681;SDS011;6405;59.208;18.216;2023-07-28T02:43:30;3.73;;;2.10;;
12681;SDS011;6405;59.208;18.216;2023-07-28T02:45:56;3.60;;;2.03;;
12681;SDS011;6405;59.208;18.216;2023-07-28T02:48:23;2.90;;;2.53;;
12681;SDS011;6405;59.208;18.216;2023-07-28T02:50:49;4.27;;;2.30;;
12681;SDS011;6405;59.208;18.216;2023-07-28T02:53:16;3.20;;;2.13;;
12681;SDS011;6405;59.208;18.216;2023-07-28T02:55:42;3.60;;;2.43;;
12681;SDS011;6405;59.208;18.216;2023-07-28T02:58:08;2.90;;;2.27;;
12681;SDS011;6405;59.208;18.216;2023-07-28T03:00:38;5.27;;;2.73;;
12681;SDS011;6405;59.208;18.216;2023-07-28T03:03:22;2.67;;;2.33;;
12681;SDS011;6405;59.208;18.216;2023-07-28T03:05:51;2.53;;;2.27;;
12681;SDS011;6405;59.208;18.216;2023-07-28T03:08:19;2.97;;;2.27;;
12681;SDS011;6405;59.208;18.216;2023-07-28T03:10:45;3.23;;;2.30;;
12681;SDS011;6405;59.208;18.216;2023-07-28T03:13:11;3.07;;;2.33;;
12681;SDS011;6405;59.208;18.216;2023-07-28T03:15:37;4.30;;;2.43;;
12681;SDS011;6405;59.208;18.216;2023-07-28T03:18:03;2.73;;;2.50;;
12681;SDS011;6405;59.208;18.216;2023-07-28T03:20:29;3.10;;;2.10;;
12681;SDS011;6405;59.208;18.216;2023-07-28T03:22:55;2.90;;;2.53;;
12681;SDS011;6405;59.208;18.216;2023-07-28T03:25:21;1.80;;;1.70;;
12681;SDS011;6405;59.208;18.216;2023-07-28T03:27:47;2.73;;;2.30;;
12681;SDS011;6405;59.208;18.216;2023-07-28T03:30:13;2.13;;;1.93;;
12681;SDS011;6405;59.208;18.216;2023-07-28T03:32:39;5.03;;;2.40;;
12681;SDS011;6405;59.208;18.216;2023-07-28T03:35:05;3.67;;;2.37;;
12681;SDS011;6405;59.208;18.216;2023-07-28T03:37:31;5.33;;;2.53;;
12681;SDS011;6405;59.208;18.216;2023-07-28T03:39:57;5.00;;;2.57;;
12681;SDS011;6405;59.208;18.216;2023-07-28T03:42:23;5.17;;;2.60;;
12681;SDS011;6405;59.208;18.216;2023-07-28T03:44:49;4.03;;;2.80;;
12681;SDS011;6405;59.208;18.216;2023-07-28T03:47:15;5.83;;;3.03;;
12681;SDS011;6405;59.208;18.216;2023-07-28T03:49:41;2.97;;;2.47;;
12681;SDS011;6405;59.208;18.216;2023-07-28T03:52:07;3.30;;;2.70;;
12681;SDS011;6405;59.208;18.216;2023-07-28T03:54:33;3.73;;;2.60;;
12681;SDS011;6405;59.208;18.216;2023-07-28T03:56:58;3.77;;;2.43;;
12681;SDS011;6405;59.208;18.216;2023-07-28T03:59:24;3.50;;;2.40;;
12681;SDS011;6405;59.208;18.216;2023-07-28T04:01:50;2.20;;;2.00;;
12681;SDS011;6405;59.208;18.216;2023-07-28T04:04:17;4.20;;;2.43;;
12681;SDS011;6405;59.208;18.216;2023-07-28T04:06:44;4.80;;;2.80;;
12681;SDS011;6405;59.208;18.216;2023-07-28T04:09:12;3.53;;;2.27;;
12681;SDS011;6405;59.208;18.216;2023-07-28T04:11:39;2.70;;;2.40;;
12681;SDS011;6405;59.208;18.216;2023-07-28T04:14:05;2.47;;;2.20;;
12681;SDS011;6405;59.208;18.216;2023-07-28T04:16:30;3.60;;;2.50;;
12681;SDS011;6405;59.208;18.216;2023-07-28T04:18:57;4.17;;;2.67;;
12681;SDS011;6405;59.208;18.216;2023-07-28T04:21:23;3.27;;;2.20;;
12681;SDS011;6405;59.208;18.216;2023-07-28T04:23:48;2.17;;;1.97;;
12681;SDS011;6405;59.208;18.216;2023-07-28T04:26:15;3.17;;;2.80;;
12681;SDS011;6405;59.208;18.216;2023-07-28T04:28:41;4.57;;;3.03;;
12681;SDS011;6405;59.208;18.216;2023-07-28T04:31:07;4.00;;;3.07;;
12681;SDS011;6405;59.208;18.216;2023-07-28T04:33:33;4.90;;;3.50;;
12681;SDS011;6405;59.208;18.216;2023-07-28T04:35:59;7.37;;;3.87;;
12681;SDS011;6405;59.208;18.216;2023-07-28T04:38:27;8.30;;;4.13;;
12681;SDS011;6405;59.208;18.216;2023-07-28T04:40:53;5.03;;;4.00;;
12681;SDS011;6405;59.208;18.216;2023-07-28T04:43:19;6.67;;;4.03;;
12681;SDS011;6405;59.208;18.216;2023-07-28T04:45:45;7.23;;;5.10;;
12681;SDS011;6405;59.208;18.216;2023-07-28T04:48:11;5.53;;;4.33;;
12681;SDS011;6405;59.208;18.216;2023-07-28T04:50:36;5.07;;;4.17;;
12681;SDS011;6405;59.208;18.216;2023-07-28T04:53:02;6.17;;;4.73;;
12681;SDS011;6405;59.208;18.216;2023-07-28T04:55:29;7.83;;;4.60;;
12681;SDS011;6405;59.208;18.216;2023-07-28T04:57:55;5.93;;;4.67;;
12681;SDS011;6405;59.208;18.216;2023-07-28T05:00:20;6.00;;;4.77;;
12681;SDS011;6405;59.208;18.216;2023-07-28T05:02:46;7.77;;;5.00;;
12681;SDS011;6405;59.208;18.216;2023-07-28T05:05:12;7.83;;;5.37;;
12681;SDS011;6405;59.208;18.216;2023-07-28T05:07:38;6.53;;;4.90;;
12681;SDS011;6405;59.208;18.216;2023-07-28T05:10:04;4.77;;;4.20;;
12681;SDS011;6405;59.208;18.216;2023-07-28T05:12:30;4.73;;;4.13;;
12681;SDS011;6405;59.208;18.216;2023-07-28T05:14:55;9.90;;;4.97;;
12681;SDS011;6405;59.208;18.216;2023-07-28T05:17:21;7.30;;;4.83;;
12681;SDS011;6405;59.208;18.216;2023-07-28T05:19:47;5.83;;;4.63;;
12681;SDS011;6405;59.208;18.216;2023-07-28T05:22:14;6.73;;;4.57;;
12681;SDS011;6405;59.208;18.216;2023-07-28T05:24:40;6.47;;;4.63;;
12681;SDS011;6405;59.208;18.216;2023-07-28T05:27:05;6.90;;;4.33;;
12681;SDS011;6405;59.208;18.216;2023-07-28T05:29:31;5.67;;;4.53;;
12681;SDS011;6405;59.208;18.216;2023-07-28T05:32:00;6.07;;;4.07;;
12681;SDS011;6405;59.208;18.216;2023-07-28T05:34:26;5.03;;;3.80;;
12681;SDS011;6405;59.208;18.216;2023-07-28T05:36:52;5.30;;;3.53;;
12681;SDS011;6405;59.208;18.216;2023-07-28T05:39:18;4.73;;;3.37;;
12681;SDS011;6405;59.208;18.216;2023-07-28T05:41:44;3.47;;;2.97;;
12681;SDS011;6405;59.208;18.216;2023-07-28T05:44:09;5.80;;;3.10;;
12681;SDS011;6405;59.208;18.216;2023-07-28T05:46:35;3.07;;;2.80;;
12681;SDS011;6405;59.208;18.216;2023-07-28T05:49:01;3.13;;;2.50;;
12681;SDS011;6405;59.208;18.216;2023-07-28T05:51:27;2.90;;;2.57;;
12681;SDS011;6405;59.208;18.216;2023-07-28T05:53:52;2.90;;;2.50;;
12681;SDS011;6405;59.208;18.216;2023-07-28T05:56:19;2.87;;;2.60;;
12681;SDS011;6405;59.208;18.216;2023-07-28T05:58:46;2.60;;;2.40;;
12681;SDS011;6405;59.208;18.216;2023-07-28T06:01:12;3.73;;;2.40;;
12681;SDS011;6405;59.208;18.216;2023-07-28T06:03:38;4.47;;;2.60;;
12681;SDS011;6405;59.208;18.216;2023-07-28T06:06:04;3.40;;;2.13;;
12681;SDS011;6405;59.208;18.216;2023-07-28T06:08:30;2.20;;;2.00;;
12681;SDS011;6405;59.208;18.216;2023-07-28T06:10:56;3.57;;;2.30;;
12681;SDS011;6405;59.208;18.216;2023-07-28T06:13:22;2.60;;;2.10;;
12681;SDS011;6405;59.208;18.216;2023-07-28T06:15:47;3.63;;;2.10;;
12681;SDS011;6405;59.208;18.216;2023-07-28T06:18:13;2.23;;;1.83;;
12681;SDS011;6405;59.208;18.216;2023-07-28T06:20:42;1.90;;;1.70;;
12681;SDS011;6405;59.208;18.216;2023-07-28T06:23:08;6.00;;;1.90;;
12681;SDS011;6405;59.208;18.216;2023-07-28T06:25:34;2.33;;;1.77;;
12681;SDS011;6405;59.208;18.216;2023-07-28T06:28:01;1.60;;;1.50;;
12681;SDS011;6405;59.208;18.216;2023-07-28T06:30:27;1.40;;;1.30;;
12681;SDS011;6405;59.208;18.216;2023-07-28T06:32:53;1.30;;;1.17;;
12681;SDS011;6405;59.208;18.216;2023-07-28T06:35:19;1.70;;;1.33;;
12681;SDS011;6405;59.208;18.216;2023-07-28T06:37:45;2.63;;;1.63;;
12681;SDS011;6405;59.208;18.216;2023-07-28T06:40:10;2.03;;;1.13;;
12681;SDS011;6405;59.208;18.216;2023-07-28T06:42:37;2.60;;;1.67;;
12681;SDS011;6405;59.208;18.216;2023-07-28T06:45:03;3.53;;;1.37;;
12681;SDS011;6405;59.208;18.216;2023-07-28T06:47:29;2.47;;;1.00;;
12681;SDS011;6405;59.208;18.216;2023-07-28T06:49:55;2.60;;;1.33;;
12681;SDS011;6405;59.208;18.216;2023-07-28T06:52:20;1.53;;;1.10;;
12681;SDS011;6405;59.208;18.216;2023-07-28T06:54:47;1.50;;;1.40;;
12681;SDS011;6405;59.208;18.216;2023-07-28T06:57:14;1.00;;;0.90;;
12681;SDS011;6405;59.208;18.216;2023-07-28T06:59:43;1.30;;;0.90;;
12681;SDS011;6405;59.208;18.216;2023-07-28T07:02:08;1.77;;;1.00;;
12681;SDS011;6405;59.208;18.216;2023-07-28T07:04:34;3.37;;;1.00;;
12681;SDS011;6405;59.208;18.216;2023-07-28T07:07:00;1.20;;;0.90;;
12681;SDS011;6405;59.208;18.216;2023-07-28T07:09:27;1.27;;;1.17;;
12681;SDS011;6405;59.208;18.216;2023-07-28T07:11:53;1.50;;;0.97;;
12681;SDS011;6405;59.208;18.216;2023-07-28T07:14:19;3.87;;;1.17;;
12681;SDS011;6405;59.208;18.216;2023-07-28T07:16:45;2.33;;;1.10;;
12681;SDS011;6405;59.208;18.216;2023-07-28T07:19:11;1.53;;;0.90;;
12681;SDS011;6405;59.208;18.216;2023-07-28T07:21:38;4.60;;;1.03;;
12681;SDS011;6405;59.208;18.216;2023-07-28T07:24:04;1.03;;;0.93;;
12681;SDS011;6405;59.208;18.216;2023-07-28T07:26:30;1.50;;;1.03;;
12681;SDS011;6405;59.208;18.216;2023-07-28T07:28:56;1.20;;;0.80;;
12681;SDS011;6405;59.208;18.216;2023-07-28T07:31:22;0.70;;;0.70;;
12681;SDS011;6405;59.208;18.216;2023-07-28T07:33:48;1.27;;;0.90;;
12681;SDS011;6405;59.208;18.216;2023-07-28T07:36:15;1.00;;;0.90;;
12681;SDS011;6405;59.208;18.216;2023-07-28T07:38:43;0.80;;;0.80;;
12681;SDS011;6405;59.208;18.216;2023-07-28T07:41:12;0.83;;;0.60;;
12681;SDS011;6405;59.208;18.216;2023-07-28T07:43:41;1.27;;;0.60;;
12681;SDS011;6405;59.208;18.216;2023-07-28T07:46:07;1.20;;;0.70;;
12681;SDS011;6405;59.208;18.216;2023-07-28T07:48:33;0.60;;;0.50;;
12681;SDS011;6405;59.208;18.216;2023-07-28T07:50:59;1.13;;;0.60;;
12681;SDS011;6405;59.208;18.216;2023-07-28T07:53:25;1.13;;;0.93;;
12681;SDS011;6405;59.208;18.216;2023-07-28T07:55:51;3.33;;;0.80;;
12681;SDS011;6405;59.208;18.216;2023-07-28T07:58:16;1.70;;;0.87;;
12681;SDS011;6405;59.208;18.216;2023-07-28T08:00:42;3.90;;;1.07;;
12681;SDS011;6405;59.208;18.216;2023-07-28T08:03:09;0.90;;;0.60;;
12681;SDS011;6405;59.208;18.216;2023-07-28T08:05:35;2.00;;;0.80;;
12681;SDS011;6405;59.208;18.216;2023-07-28T08:08:01;3.03;;;0.80;;
12681;SDS011;6405;59.208;18.216;2023-07-28T08:10:27;2.30;;;0.97;;
12681;SDS011;6405;59.208;18.216;2023-07-28T08:12:53;2.10;;;0.90;;
12681;SDS011;6405;59.208;18.216;2023-07-28T08:15:20;1.70;;;0.87;;
12681;SDS011;6405;59.208;18.216;2023-07-28T08:17:45;2.40;;;1.10;;
12681;SDS011;6405;59.208;18.216;2023-07-28T08:20:11;2.73;;;1.20;;
12681;SDS011;6405;59.208;18.216;2023-07-28T08:22:37;1.80;;;1.10;;
12681;SDS011;6405;59.208;18.216;2023-07-28T08:25:04;1.90;;;1.20;;
12681;SDS011;6405;59.208;18.216;2023-07-28T08:27:30;1.83;;;0.90;;
12681;SDS011;6405;59.208;18.216;2023-07-28T08:29:56;3.77;;;1.00;;
12681;SDS011;6405;59.208;18.216;2023-07-28T08:32:21;1.70;;;1.00;;
12681;SDS011;6405;59.208;18.216;2023-07-28T08:34:47;1.73;;;1.10;;
12681;SDS011;6405;59.208;18.216;2023-07-28T08:37:13;1.83;;;0.97;;
12681;SDS011;6405;59.208;18.216;2023-07-28T08:39:39;3.67;;;1.47;;
12681;SDS011;6405;59.208;18.216;2023-07-28T08:42:05;1.97;;;1.20;;
12681;SDS011;6405;59.208;18.216;2023-07-28T08:44:34;1.20;;;1.03;;
12681;SDS011;6405;59.208;18.216;2023-07-28T08:47:01;3.27;;;1.10;;
12681;SDS011;6405;59.208;18.216;2023-07-28T08:49:29;1.40;;;1.30;;
12681;SDS011;6405;59.208;18.216;2023-07-28T08:52:00;1.30;;;1.20;;
12681;SDS011;6405;59.208;18.216;2023-07-28T08:54:27;1.67;;;1.00;;
12681;SDS011;6405;59.208;18.216;2023-07-28T08:56:53;1.77;;;1.20;;
12681;SDS011;6405;59.208;18.216;2023-07-28T08:59:22;1.57;;;1.10;;
12681;SDS011;6405;59.208;18.216;2023-07-28T09:01:51;2.40;;;1.30;;
12681;SDS011;6405;59.208;18.216;2023-07-28T09:04:18;1.60;;;1.20;;
12681;SDS011;6405;59.208;18.216;2023-07-28T09:06:45;1.83;;;1.10;;
12681;SDS011;6405;59.208;18.216;2023-07-28T09:09:13;2.13;;;1.10;;
12681;SDS011;6405;59.208;18.216;2023-07-28T09:11:46;1.37;;;1.00;;
12681;SDS011;6405;59.208;18.216;2023-07-28T09:14:16;2.13;;;1.20;;
12681;SDS011;6405;59.208;18.216;2023-07-28T09:16:44;1.43;;;1.33;;
12681;SDS011;6405;59.208;18.216;2023-07-28T09:19:10;1.67;;;0.97;;
12681;SDS011;6405;59.208;18.216;2023-07-28T09:21:39;2.03;;;1.30;;
12681;SDS011;6405;59.208;18.216;2023-07-28T09:24:09;2.03;;;1.20;;
12681;SDS011;6405;59.208;18.216;2023-07-28T09:26:39;1.67;;;1.20;;
12681;SDS011;6405;59.208;18.216;2023-07-28T09:31:45;1.23;;;1.13;;
12681;SDS011;6405;59.208;18.216;2023-07-28T09:34:12;3.53;;;1.30;;
12681;SDS011;6405;59.208;18.216;2023-07-28T09:36:47;3.50;;;1.30;;
12681;SDS011;6405;59.208;18.216;2023-07-28T09:39:14;1.63;;;1.40;;
12681;SDS011;6405;59.208;18.216;2023-07-28T09:41:40;2.57;;;1.47;;
12681;SDS011;6405;59.208;18.216;2023-07-28T09:44:05;1.40;;;0.97;;
12681;SDS011;6405;59.208;18.216;2023-07-28T09:46:34;1.83;;;0.90;;
12681;SDS011;6405;59.208;18.216;2023-07-28T09:49:10;4.10;;;1.27;;
12681;SDS011;6405;59.208;18.216;2023-07-28T09:51:39;4.00;;;1.50;;
12681;SDS011;6405;59.208;18.216;2023-07-28T09:54:11;4.27;;;1.43;;
12681;SDS011;6405;59.208;18.216;2023-07-28T09:56:39;1.73;;;1.40;;
12681;SDS011;6405;59.208;18.216;2023-07-28T09:59:14;1.80;;;1.37;;
12681;SDS011;6405;59.208;18.216;2023-07-28T10:01:43;2.03;;;1.57;;
12681;SDS011;6405;59.208;18.216;2023-07-28T10:04:10;3.17;;;1.70;;
12681;SDS011;6405;59.208;18.216;2023-07-28T10:06:36;3.23;;;1.60;;
12681;SDS011;6405;59.208;18.216;2023-07-28T10:09:03;5.27;;;1.43;;
12681;SDS011;6405;59.208;18.216;2023-07-28T10:11:33;2.37;;;1.43;;
12681;SDS011;6405;59.208;18.216;2023-07-28T10:13:59;2.13;;;1.37;;
12681;SDS011;6405;59.208;18.216;2023-07-28T10:16:46;2.90;;;1.80;;
12681;SDS011;6405;59.208;18.216;2023-07-28T10:19:11;6.53;;;1.73;;
12681;SDS011;6405;59.208;18.216;2023-07-28T10:21:40;9.63;;;2.53;;
12681;SDS011;6405;59.208;18.216;2023-07-28T10:24:09;12.97;;;3.27;;
12681;SDS011;6405;59.208;18.216;2023-07-28T10:26:35;9.10;;;2.43;;
12681;SDS011;6405;59.208;18.216;2023-07-28T10:29:11;11.33;;;2.40;;
12681;SDS011;6405;59.208;18.216;2023-07-28T10:31:51;7.23;;;2.13;;
12681;SDS011;6405;59.208;18.216;2023-07-28T10:34:22;7.53;;;2.63;;
12681;SDS011;6405;59.208;18.216;2023-07-28T10:36:56;11.40;;;3.10;;
12681;SDS011;6405;59.208;18.216;2023-07-28T10:39:23;6.00;;;2.50;;
12681;SDS011;6405;59.208;18.216;2023-07-28T10:42:06;4.47;;;2.10;;
12681;SDS011;6405;59.208;18.216;2023-07-28T10:44:34;4.30;;;2.30;;
12681;SDS011;6405;59.208;18.216;2023-07-28T10:47:00;6.43;;;2.60;;
12681;SDS011;6405;59.208;18.216;2023-07-28T10:49:29;5.20;;;2.53;;
12681;SDS011;6405;59.208;18.216;2023-07-28T10:51:58;1.80;;;1.60;;
12681;SDS011;6405;59.208;18.216;2023-07-28T10:54:24;3.30;;;2.03;;
12681;SDS011;6405;59.208;18.216;2023-07-28T10:56:50;2.40;;;1.60;;
12681;SDS011;6405;59.208;18.216;2023-07-28T10:59:16;2.20;;;1.60;;
12681;SDS011;6405;59.208;18.216;2023-07-28T11:01:42;2.93;;;1.70;;
12681;SDS011;6405;59.208;18.216;2023-07-28T11:04:15;3.23;;;1.67;;
12681;SDS011;6405;59.208;18.216;2023-07-28T11:06:46;2.40;;;1.60;;
12681;SDS011;6405;59.208;18.216;2023-07-28T11:09:14;2.20;;;1.60;;
12681;SDS011;6405;59.208;18.216;2023-07-28T11:11:42;2.63;;;1.70;;
12681;SDS011;6405;59.208;18.216;2023-07-28T11:14:08;1.53;;;1.37;;
12681;SDS011;6405;59.208;18.216;2023-07-28T11:16:38;3.53;;;1.40;;
12681;SDS011;6405;59.208;18.216;2023-07-28T11:19:09;5.00;;;1.40;;
12681;SDS011;6405;59.208;18.216;2023-07-28T11:21:36;3.50;;;2.53;;
12681;SDS011;6405;59.208;18.216;2023-07-28T11:24:09;2.40;;;2.20;;
12681;SDS011;6405;59.208;18.216;2023-07-28T11:26:36;3.97;;;1.67;;
12681;SDS011;6405;59.208;18.216;2023-07-28T11:29:03;5.20;;;1.70;;
12681;SDS011;6405;59.208;18.216;2023-07-28T11:31:29;2.67;;;2.23;;
12681;SDS011;6405;59.208;18.216;2023-07-28T11:33:56;2.77;;;2.17;;
12681;SDS011;6405;59.208;18.216;2023-07-28T11:36:25;3.73;;;1.50;;
12681;SDS011;6405;59.208;18.216;2023-07-28T11:38:52;3.73;;;1.87;;
12681;SDS011;6405;59.208;18.216;2023-07-28T11:41:20;5.97;;;1.50;;
12681;SDS011;6405;59.208;18.216;2023-07-28T11:43:47;2.97;;;1.60;;
12681;SDS011;6405;59.208;18.216;2023-07-28T11:49:24;1.63;;;1.40;;
12681;SDS011;6405;59.208;18.216;2023-07-28T11:51:50;4.37;;;1.50;;
12681;SDS011;6405;59.208;18.216;2023-07-28T11:54:20;2.33;;;1.20;;
12681;SDS011;6405;59.208;18.216;2023-07-28T11:56:47;2.27;;;1.27;;
12681;SDS011;6405;59.208;18.216;2023-07-28T11:59:14;1.40;;;1.27;;
12681;SDS011;6405;59.208;18.216;2023-07-28T12:01:57;2.00;;;1.47;;
12681;SDS011;6405;59.208;18.216;2023-07-28T12:04:27;1.50;;;1.00;;
12681;SDS011;6405;59.208;18.216;2023-07-28T12:07:02;4.67;;;1.50;;
12681;SDS011;6405;59.208;18.216;2023-07-28T12:09:29;1.90;;;1.80;;
12681;SDS011;6405;59.208;18.216;2023-07-28T12:11:57;2.30;;;2.10;;
12681;SDS011;6405;59.208;18.216;2023-07-28T12:14:34;2.17;;;1.57;;
12681;SDS011;6405;59.208;18.216;2023-07-28T12:17:00;1.80;;;1.47;;
12681;SDS011;6405;59.208;18.216;2023-07-28T12:19:28;5.80;;;1.60;;
12681;SDS011;6405;59.208;18.216;2023-07-28T12:21:54;3.50;;;1.67;;
12681;SDS011;6405;59.208;18.216;2023-07-28T12:24:20;2.27;;;1.53;;
12681;SDS011;6405;59.208;18.216;2023-07-28T12:26:46;2.37;;;1.37;;
12681;SDS011;6405;59.208;18.216;2023-07-28T12:29:13;2.10;;;1.60;;
12681;SDS011;6405;59.208;18.216;2023-07-28T12:31:39;4.23;;;1.70;;
12681;SDS011;6405;59.208;18.216;2023-07-28T12:34:05;2.10;;;1.60;;
12681;SDS011;6405;59.208;18.216;2023-07-28T12:36:30;2.73;;;1.60;;
12681;SDS011;6405;59.208;18.216;2023-07-28T12:38:56;2.90;;;1.37;;
12681;SDS011;6405;59.208;18.216;2023-07-28T12:41:22;1.67;;;1.40;;
12681;SDS011;6405;59.208;18.216;2023-07-28T12:43:48;4.10;;;1.30;;
12681;SDS011;6405;59.208;18.216;2023-07-28T12:46:13;1.97;;;1.40;;
12681;SDS011;6405;59.208;18.216;2023-07-28T12:48:39;1.70;;;1.40;;
12681;SDS011;6405;59.208;18.216;2023-07-28T12:51:05;2.63;;;1.50;;
12681;SDS011;6405;59.208;18.216;2023-07-28T12:53:31;2.47;;;1.50;;
12681;SDS011;6405;59.208;18.216;2023-07-28T12:55:57;3.37;;;1.50;;
12681;SDS011;6405;59.208;18.216;2023-07-28T12:58:23;3.97;;;1.47;;
12681;SDS011;6405;59.208;18.216;2023-07-28T13:00:49;2.07;;;1.10;;
12681;SDS011;6405;59.208;18.216;2023-07-28T13:03:15;3.17;;;1.57;;
12681;SDS011;6405;59.208;18.216;2023-07-28T13:05:40;4.77;;;1.60;;
12681;SDS011;6405;59.208;18.216;2023-07-28T13:08:08;2.60;;;1.60;;
12681;SDS011;6405;59.208;18.216;2023-07-28T13:10:34;3.30;;;1.50;;
12681;SDS011;6405;59.208;18.216;2023-07-28T13:12:59;2.73;;;1.73;;
12681;SDS011;6405;59.208;18.216;2023-07-28T13:15:25;2.73;;;1.33;;
12681;SDS011;6405;59.208;18.216;2023-07-28T13:17:51;2.77;;;1.50;;
12681;SDS011;6405;59.208;18.216;2023-07-28T13:20:17;2.40;;;1.37;;
12681;SDS011;6405;59.208;18.216;2023-07-28T13:22:42;3.43;;;1.30;;
12681;SDS011;6405;59.208;18.216;2023-07-28T13:25:08;2.20;;;1.53;;
12681;SDS011;6405;59.208;18.216;2023-07-28T13:27:34;1.70;;;1.00;;
12681;SDS011;6405;59.208;18.216;2023-07-28T13:30:00;2.07;;;1.10;;
12681;SDS011;6405;59.208;18.216;2023-07-28T13:32:27;3.17;;;1.30;;
12681;SDS011;6405;59.208;18.216;2023-07-28T13:34:53;2.00;;;1.30;;
12681;SDS011;6405;59.208;18.216;2023-07-28T13:37:19;2.13;;;1.20;;
12681;SDS011;6405;59.208;18.216;2023-07-28T13:39:45;2.30;;;1.20;;
12681;SDS011;6405;59.208;18.216;2023-07-28T13:42:11;1.20;;;1.03;;
12681;SDS011;6405;59.208;18.216;2023-07-28T13:44:39;1.37;;;1.20;;
12681;SDS011;6405;59.208;18.216;2023-07-28T13:47:05;1.40;;;0.97;;
12681;SDS011;6405;59.208;18.216;2023-07-28T13:49:31;3.80;;;1.67;;
12681;SDS011;6405;59.208;18.216;2023-07-28T13:52:00;2.23;;;1.47;;
12681;SDS011;6405;59.208;18.216;2023-07-28T13:54:26;2.10;;;1.30;;
12681;SDS011;6405;59.208;18.216;2023-07-28T13:56:52;1.27;;;1.10;;
12681;SDS011;6405;59.208;18.216;2023-07-28T13:59:18;1.67;;;1.00;;
12681;SDS011;6405;59.208;18.216;2023-07-28T14:01:44;3.97;;;1.27;;
12681;SDS011;6405;59.208;18.216;2023-07-28T14:04:09;1.27;;;0.90;;
12681;SDS011;6405;59.208;18.216;2023-07-28T14:06:35;1.60;;;1.00;;
12681;SDS011;6405;59.208;18.216;2023-07-28T14:09:01;1.17;;;0.93;;
12681;SDS011;6405;59.208;18.216;2023-07-28T14:11:27;1.27;;;1.00;;
12681;SDS011;6405;59.208;18.216;2023-07-28T14:13:52;2.47;;;1.10;;
12681;SDS011;6405;59.208;18.216;2023-07-28T14:16:18;0.80;;;0.80;;
12681;SDS011;6405;59.208;18.216;2023-07-28T14:18:44;1.63;;;0.90;;
12681;SDS011;6405;59.208;18.216;2023-07-28T14:21:12;0.93;;;0.70;;
12681;SDS011;6405;59.208;18.216;2023-07-28T14:23:38;2.20;;;0.80;;
12681;SDS011;6405;59.208;18.216;2023-07-28T14:26:04;1.13;;;0.80;;
12681;SDS011;6405;59.208;18.216;2023-07-28T14:28:30;0.77;;;0.70;;
12681;SDS011;6405;59.208;18.216;2023-07-28T14:30:56;1.70;;;1.30;;
12681;SDS011;6405;59.208;18.216;2023-07-28T14:33:21;1.00;;;0.80;;
12681;SDS011;6405;59.208;18.216;2023-07-28T14:35:48;3.00;;;1.17;;
12681;SDS011;6405;59.208;18.216;2023-07-28T14:38:14;2.10;;;1.00;;
12681;SDS011;6405;59.208;18.216;2023-07-28T14:40:40;0.90;;;0.80;;
12681;SDS011;6405;59.208;18.216;2023-07-28T14:43:06;0.83;;;0.70;;
12681;SDS011;6405;59.208;18.216;2023-07-28T14:45:32;0.87;;;0.60;;
12681;SDS011;6405;59.208;18.216;2023-07-28T14:47:58;1.70;;;0.80;;
12681;SDS011;6405;59.208;18.216;2023-07-28T14:50:25;2.93;;;1.00;;
12681;SDS011;6405;59.208;18.216;2023-07-28T14:52:52;1.37;;;0.80;;
12681;SDS011;6405;59.208;18.216;2023-07-28T14:55:17;1.23;;;1.00;;
12681;SDS011;6405;59.208;18.216;2023-07-28T14:57:43;0.70;;;0.70;;